Time;durP1;ratioP1;P1;durP2;ratioP2;P2;SDS_P1;SDS_P2;PMS_P1;PMS_P2;Temp;Humidity;BMP_temperature;BMP_pressure;BME280_temperature;BME280_humidity;BME280_pressure;Samples;Min_cycle;Max_cycle;Signal;HPM_P1;HPM_P2
2022/03/12 00:00:09;;;;;;;12.15;8.88;;;2.20;83.20;;;;;;5066604;28;20232;-94
2022/03/12 00:02:37;;;;;;;16.63;10.52;;;2.20;82.90;;;;;;5060158;28;20231;-93
2022/03/12 00:05:08;;;;;;;16.10;9.95;;;2.20;83.10;;;;;;5060588;28;20368;-95
2022/03/12 00:07:35;;;;;;;13.88;9.95;;;2.20;82.80;;;;;;5058908;28;20567;-94
2022/03/12 00:10:05;;;;;;;12.88;9.55;;;2.20;82.60;;;;;;5060892;28;20217;-93
2022/03/12 00:12:36;;;;;;;15.38;10.55;;;2.20;83.10;;;;;;5061101;28;20201;-94
2022/03/12 00:15:09;;;;;;;12.13;9.50;;;2.30;83.10;;;;;;5061288;28;20202;-94
2022/03/12 00:17:39;;;;;;;11.20;9.13;;;2.20;83.40;;;;;;5060548;28;20296;-94
2022/03/12 00:20:12;;;;;;;14.10;10.10;;;2.20;83.40;;;;;;5061047;28;20225;-94
2022/03/12 00:22:41;;;;;;;11.50;9.50;;;2.30;84.10;;;;;;5064012;28;20232;-93
2022/03/12 00:25:11;;;;;;;13.80;9.25;;;2.30;84.80;;;;;;5064071;28;20209;-94
2022/03/12 00:27:41;;;;;;;10.43;8.18;;;2.40;85.10;;;;;;5063200;28;20676;-94
2022/03/12 00:30:13;;;;;;;13.50;9.20;;;2.40;85.10;;;;;;5063997;28;20289;-94
2022/03/12 00:32:41;;;;;;;13.80;9.45;;;2.50;85.50;;;;;;5064004;28;20609;-94
2022/03/12 00:35:09;;;;;;;12.30;8.90;;;2.50;84.30;;;;;;5064330;28;20205;-94
2022/03/12 00:37:37;;;;;;;16.35;10.00;;;2.70;83.50;;;;;;5064112;28;20220;-94
2022/03/12 00:40:06;;;;;;;15.20;10.50;;;2.70;82.90;;;;;;5063923;28;20224;-94
2022/03/12 00:42:33;;;;;;;13.18;9.95;;;2.70;83.00;;;;;;5063907;28;20293;-94
2022/03/12 00:45:02;;;;;;;13.30;9.48;;;2.70;83.10;;;;;;5065047;28;20313;-94
2022/03/12 00:47:32;;;;;;;14.60;9.80;;;2.60;83.70;;;;;;5063717;28;20299;-94
2022/03/12 00:49:58;;;;;;;11.90;9.23;;;2.60;84.80;;;;;;5064233;28;20354;-94
2022/03/12 00:52:25;;;;;;;16.20;10.38;;;2.60;84.90;;;;;;5064313;28;20232;-94
2022/03/12 00:54:52;;;;;;;13.70;9.20;;;2.60;85.00;;;;;;5064926;28;20231;-93
2022/03/12 00:57:20;;;;;;;13.43;10.35;;;2.60;84.80;;;;;;5064504;28;20213;-94
2022/03/12 00:59:47;;;;;;;12.85;10.35;;;2.70;84.70;;;;;;5064512;28;20232;-94
2022/03/12 01:02:17;;;;;;;15.57;9.18;;;2.70;84.60;;;;;;5064686;28;20578;-94
2022/03/12 01:04:46;;;;;;;14.15;10.45;;;2.80;85.60;;;;;;5064959;28;20621;-94
2022/03/12 01:07:14;;;;;;;13.38;9.82;;;2.80;86.00;;;;;;5063203;28;20203;-94
2022/03/12 01:09:41;;;;;;;14.35;10.38;;;2.80;86.60;;;;;;5063499;28;20211;-94
2022/03/12 01:12:10;;;;;;;12.82;9.48;;;2.70;87.00;;;;;;5064285;28;20208;-94
2022/03/12 01:14:38;;;;;;;16.67;10.63;;;2.70;87.10;;;;;;5063846;28;20208;-93
2022/03/12 01:17:07;;;;;;;20.77;11.25;;;2.60;87.40;;;;;;5065197;28;20208;-93
2022/03/12 01:19:36;;;;;;;12.30;9.65;;;2.60;87.10;;;;;;5069055;28;20217;-94
2022/03/12 01:22:05;;;;;;;16.40;12.10;;;2.50;87.10;;;;;;5068653;28;20232;-94
2022/03/12 01:24:34;;;;;;;14.82;10.40;;;2.50;87.80;;;;;;5064624;28;20235;-93
2022/03/12 01:27:02;;;;;;;14.73;10.45;;;2.50;87.60;;;;;;5063024;28;20262;-94
2022/03/12 01:29:29;;;;;;;15.95;9.82;;;2.50;87.50;;;;;;5063550;28;20231;-93
2022/03/12 01:31:56;;;;;;;17.70;10.68;;;2.60;87.00;;;;;;5062377;28;20225;-94
2022/03/12 01:34:23;;;;;;;13.48;10.13;;;2.60;86.80;;;;;;5063385;28;20213;-94
2022/03/12 01:36:50;;;;;;;17.13;9.93;;;2.60;86.80;;;;;;5061372;28;20213;-94
2022/03/12 01:39:20;;;;;;;15.80;10.68;;;2.60;86.90;;;;;;5063062;28;20215;-94
2022/03/12 01:41:46;;;;;;;12.55;10.48;;;2.70;86.20;;;;;;5065425;28;20338;-94
2022/03/12 01:44:14;;;;;;;18.33;10.32;;;2.70;85.90;;;;;;5062083;28;20208;-94
2022/03/12 01:46:46;;;;;;;14.40;9.25;;;2.80;85.70;;;;;;5061187;28;20201;-93
2022/03/12 01:49:16;;;;;;;15.25;9.73;;;2.80;86.20;;;;;;5061770;28;20201;-94
2022/03/12 01:51:44;;;;;;;14.55;11.20;;;2.80;86.20;;;;;;5061360;28;20228;-95
2022/03/12 01:54:13;;;;;;;13.40;10.85;;;2.80;86.30;;;;;;5060637;28;20415;-94
2022/03/12 01:56:45;;;;;;;15.60;10.00;;;2.80;86.80;;;;;;5060438;28;20205;-93
2022/03/12 01:59:12;;;;;;;17.42;10.85;;;2.80;87.00;;;;;;5061163;28;20209;-94
2022/03/12 02:01:40;;;;;;;17.02;10.00;;;2.80;86.80;;;;;;5061651;28;20235;-93
2022/03/12 02:04:09;;;;;;;14.63;10.32;;;2.90;86.60;;;;;;5062092;28;20213;-95
2022/03/12 02:06:41;;;;;;;14.85;10.30;;;2.90;87.50;;;;;;5062140;28;20237;-94
2022/03/12 02:09:14;;;;;;;17.50;11.85;;;2.90;88.00;;;;;;5062111;28;20671;-93
2022/03/12 02:11:57;;;;;;;15.82;11.25;;;2.80;88.10;;;;;;5064283;28;20243;-94
2022/03/12 02:14:26;;;;;;;13.63;10.07;;;2.80;87.40;;;;;;5064957;28;20209;-95
2022/03/12 02:16:55;;;;;;;13.10;9.60;;;2.70;86.70;;;;;;5062188;28;20208;-95
2022/03/12 02:19:29;;;;;;;17.17;11.18;;;2.80;86.80;;;;;;5061920;28;20208;-94
2022/03/12 02:21:58;;;;;;;14.88;10.23;;;2.80;86.70;;;;;;5062221;28;20221;-94
2022/03/12 02:24:29;;;;;;;16.95;11.40;;;2.70;86.80;;;;;;5069017;28;20185;-95
2022/03/12 02:26:57;;;;;;;19.45;10.88;;;2.80;86.90;;;;;;5074793;28;20212;-95
2022/03/12 02:29:25;;;;;;;15.73;11.60;;;2.80;87.60;;;;;;5076541;28;20222;-94
2022/03/12 02:31:56;;;;;;;12.82;10.15;;;2.70;88.70;;;;;;5077989;28;20177;-96
2022/03/12 02:34:28;;;;;;;12.48;9.43;;;2.80;87.90;;;;;;5075065;28;20197;-94
2022/03/12 02:36:57;;;;;;;16.10;10.90;;;2.80;88.00;;;;;;5077164;28;20189;-95
2022/03/12 02:39:27;;;;;;;15.80;10.82;;;2.80;87.30;;;;;;5070053;28;20681;-94
2022/03/12 02:41:57;;;;;;;16.20;9.30;;;2.80;86.80;;;;;;5073948;28;20223;-95
2022/03/12 02:44:26;;;;;;;14.27;10.63;;;2.90;86.60;;;;;;5077102;28;20181;-93
2022/03/12 02:47:14;;;;;;;15.32;11.00;;;2.90;86.50;;;;;;5069635;28;20205;-95
2022/03/12 02:49:45;;;;;;;12.23;10.18;;;2.80;86.50;;;;;;5070038;28;20233;-94
2022/03/12 02:52:13;;;;;;;14.50;10.32;;;2.80;86.70;;;;;;5077672;28;20193;-94
2022/03/12 02:54:40;;;;;;;13.77;10.32;;;2.80;86.70;;;;;;5077256;28;20248;-95
2022/03/12 02:57:10;;;;;;;13.60;10.30;;;2.70;86.80;;;;;;5077421;28;20187;-95
2022/03/12 02:59:38;;;;;;;21.58;10.65;;;2.70;86.30;;;;;;5077078;28;20261;-95
2022/03/12 03:02:08;;;;;;;16.27;9.95;;;2.70;87.50;;;;;;5077234;28;20236;-96
2022/03/12 03:04:40;;;;;;;14.98;11.20;;;2.60;87.30;;;;;;5077216;28;20252;-94
2022/03/12 03:07:09;;;;;;;12.32;10.20;;;2.60;87.60;;;;;;5076956;28;20215;-96
2022/03/12 03:09:36;;;;;;;13.57;9.68;;;2.60;87.80;;;;;;5077305;28;20197;-96
2022/03/12 03:12:09;;;;;;;13.88;10.40;;;2.50;88.20;;;;;;5077665;28;20185;-95
2022/03/12 03:14:50;;;;;;;13.23;8.95;;;2.40;88.60;;;;;;5077154;28;20191;-95
2022/03/12 03:17:18;;;;;;;13.30;9.85;;;2.40;88.90;;;;;;5073102;28;20655;-93
2022/03/12 03:19:45;;;;;;;16.05;10.77;;;2.40;89.30;;;;;;5064112;28;20241;-94
2022/03/12 03:22:13;;;;;;;14.50;9.50;;;2.40;89.90;;;;;;5062594;28;20227;-93
2022/03/12 03:24:40;;;;;;;16.85;11.00;;;2.40;89.90;;;;;;5061322;28;20197;-94
2022/03/12 03:27:07;;;;;;;15.98;10.50;;;2.40;90.10;;;;;;5061626;28;20207;-94
2022/03/12 03:29:34;;;;;;;15.15;10.90;;;2.40;90.00;;;;;;5061147;28;20221;-93
2022/03/12 03:32:05;;;;;;;15.00;10.55;;;2.40;89.70;;;;;;5061072;28;20665;-94
2022/03/12 03:34:33;;;;;;;13.27;10.32;;;2.50;89.60;;;;;;5059840;28;20204;-95
2022/03/12 03:37:00;;;;;;;14.02;9.55;;;2.50;90.00;;;;;;5060058;28;20204;-93
2022/03/12 03:39:27;;;;;;;13.02;9.00;;;2.40;89.20;;;;;;5059298;28;20292;-93
2022/03/12 03:41:54;;;;;;;11.18;9.38;;;2.30;89.50;;;;;;5059215;28;20215;-94
2022/03/12 03:44:23;;;;;;;12.60;10.20;;;2.20;90.10;;;;;;5060777;28;20209;-94
2022/03/12 03:46:50;;;;;;;10.07;8.52;;;2.40;89.20;;;;;;5060565;28;20219;-94
2022/03/12 03:49:19;;;;;;;12.82;9.20;;;2.40;89.30;;;;;;5062397;28;20217;-94
2022/03/12 03:51:47;;;;;;;14.80;9.57;;;2.40;90.00;;;;;;5063610;28;20209;-93
2022/03/12 03:54:15;;;;;;;17.95;9.95;;;2.30;89.70;;;;;;5061869;28;20204;-93
2022/03/12 03:56:43;;;;;;;11.65;8.43;;;2.30;89.60;;;;;;5064024;28;20201;-94
2022/03/12 03:59:10;;;;;;;18.48;9.55;;;2.30;89.50;;;;;;5067792;28;20235;-93
2022/03/12 04:01:39;;;;;;;12.80;10.10;;;2.20;89.80;;;;;;5066620;28;20208;-95
2022/03/12 04:04:07;;;;;;;11.90;8.90;;;2.20;90.00;;;;;;5067389;28;20256;-94
2022/03/12 04:06:38;;;;;;;10.15;8.55;;;2.10;89.90;;;;;;5066427;28;20201;-93
2022/03/12 04:09:05;;;;;;;14.52;10.20;;;2.00;89.80;;;;;;5063951;28;20205;-94
2022/03/12 04:11:33;;;;;;;11.35;8.75;;;2.00;89.90;;;;;;5064085;28;20288;-94
2022/03/12 04:14:00;;;;;;;12.55;8.43;;;2.00;90.00;;;;;;5063433;28;20586;-94
2022/03/12 04:16:28;;;;;;;14.02;10.57;;;2.00;90.10;;;;;;5063710;28;20205;-94
2022/03/12 04:18:55;;;;;;;12.25;9.25;;;1.90;90.20;;;;;;5063764;28;20332;-94
2022/03/12 04:21:22;;;;;;;10.73;8.85;;;1.90;90.20;;;;;;5064374;28;20284;-94
2022/03/12 04:23:51;;;;;;;12.48;9.18;;;1.80;90.20;;;;;;5064744;28;20225;-95
2022/03/12 04:26:18;;;;;;;13.27;9.35;;;1.80;89.90;;;;;;5063780;28;20201;-94
2022/03/12 04:28:45;;;;;;;16.65;9.05;;;1.80;89.90;;;;;;5064223;28;20211;-95
2022/03/12 04:31:13;;;;;;;13.32;9.30;;;1.80;90.10;;;;;;5069640;28;20227;-92
2022/03/12 04:33:40;;;;;;;12.52;9.45;;;1.70;90.10;;;;;;5068844;28;20193;-94
2022/03/12 04:36:11;;;;;;;10.55;8.25;;;1.70;90.20;;;;;;5067611;28;20205;-93
2022/03/12 04:38:38;;;;;;;10.85;8.93;;;1.70;90.00;;;;;;5064237;28;20243;-94
2022/03/12 04:41:08;;;;;;;15.23;10.13;;;1.80;90.10;;;;;;5064749;28;20288;-94
2022/03/12 04:43:36;;;;;;;12.40;8.60;;;1.80;90.40;;;;;;5064843;28;20208;-94
2022/03/12 04:46:04;;;;;;;13.75;9.40;;;1.80;90.50;;;;;;5064421;28;20197;-93
2022/03/12 04:48:32;;;;;;;12.93;9.25;;;1.80;90.20;;;;;;5064156;28;20670;-94
2022/03/12 04:50:59;;;;;;;14.20;9.05;;;1.80;90.00;;;;;;5111919;22;20227;-91
2022/03/12 04:53:27;;;;;;;16.23;10.50;;;1.90;90.00;;;;;;5096979;28;20299;-93
2022/03/12 04:55:54;;;;;;;12.35;8.75;;;1.90;90.10;;;;;;5096933;28;20203;-90
2022/03/12 04:58:23;;;;;;;13.45;8.73;;;2.10;89.10;;;;;;5096557;28;20573;-91
2022/03/12 05:00:50;;;;;;;15.50;8.85;;;2.20;88.40;;;;;;5089170;28;20224;-91
2022/03/12 05:03:19;;;;;;;12.60;8.98;;;2.10;88.30;;;;;;5076251;28;20228;-91
2022/03/12 05:05:48;;;;;;;12.23;9.40;;;2.10;88.40;;;;;;5077001;28;20201;-91
2022/03/12 05:08:17;;;;;;;13.82;9.02;;;2.10;88.40;;;;;;5075115;28;20204;-90
2022/03/12 05:10:49;;;;;;;13.98;8.80;;;2.10;88.90;;;;;;5076379;28;20224;-91
2022/03/12 05:13:16;;;;;;;11.63;8.32;;;2.10;89.40;;;;;;5076951;28;20545;-91
2022/03/12 05:15:45;;;;;;;15.50;8.65;;;2.10;89.40;;;;;;5076636;28;20653;-91
2022/03/12 05:18:16;;;;;;;14.70;8.25;;;2.10;89.20;;;;;;5076322;28;20201;-91
2022/03/12 05:20:46;;;;;;;12.63;8.48;;;2.10;88.70;;;;;;5076088;28;20224;-91
2022/03/12 05:23:14;;;;;;;12.98;8.63;;;2.10;88.70;;;;;;5078654;28;20220;-92
2022/03/12 05:25:41;;;;;;;14.52;9.30;;;2.10;88.40;;;;;;5076294;28;20220;-91
2022/03/12 05:28:10;;;;;;;15.05;8.82;;;2.10;88.60;;;;;;5077392;28;20258;-92
2022/03/12 05:30:37;;;;;;;15.75;8.50;;;2.10;88.50;;;;;;5076154;28;20311;-93
2022/03/12 05:33:05;;;;;;;11.75;8.50;;;2.20;88.90;;;;;;5076115;28;20196;-92
2022/03/12 05:35:32;;;;;;;13.93;9.00;;;2.10;89.50;;;;;;5075981;28;20205;-92
2022/03/12 05:38:14;;;;;;;12.55;8.07;;;2.20;89.40;;;;;;5076957;28;20212;-92
2022/03/12 05:40:42;;;;;;;12.98;8.82;;;2.20;90.20;;;;;;5075975;28;20225;-90
2022/03/12 05:43:17;;;;;;;11.55;9.35;;;2.30;90.10;;;;;;5075445;28;20224;-91
2022/03/12 05:45:50;;;;;;;11.32;8.30;;;2.40;88.10;;;;;;5076292;28;20234;-90
2022/03/12 05:48:19;;;;;;;10.43;8.60;;;2.40;86.90;;;;;;5075436;28;20200;-90
2022/03/12 05:50:50;;;;;;;13.85;8.60;;;2.40;87.10;;;;;;5075387;28;20319;-90
2022/03/12 05:53:19;;;;;;;11.85;8.25;;;2.30;87.90;;;;;;5075935;28;20254;-90
2022/03/12 05:55:48;;;;;;;14.52;7.72;;;2.30;87.80;;;;;;5075412;28;20205;-90
2022/03/12 05:58:17;;;;;;;11.50;8.02;;;2.30;87.40;;;;;;5074844;28;20211;-90
2022/03/12 06:00:45;;;;;;;11.88;8.23;;;2.40;87.20;;;;;;5075465;28;20353;-89
2022/03/12 06:03:12;;;;;;;11.50;7.65;;;2.40;87.90;;;;;;5075200;28;20220;-90
2022/03/12 06:05:54;;;;;;;11.73;8.43;;;2.40;87.90;;;;;;5076413;28;20211;-90
2022/03/12 06:08:21;;;;;;;11.88;8.27;;;2.40;88.10;;;;;;5075613;28;20214;-90
2022/03/12 06:10:54;;;;;;;14.85;9.30;;;2.40;87.80;;;;;;5076505;28;20228;-91
2022/03/12 06:13:28;;;;;;;11.85;8.15;;;2.50;87.70;;;;;;5075597;28;20196;-90
2022/03/12 06:15:58;;;;;;;8.57;7.45;;;2.40;86.60;;;;;;5075698;28;20291;-90
2022/03/12 06:18:29;;;;;;;7.75;6.45;;;2.50;85.00;;;;;;5073830;28;20226;-89
2022/03/12 06:20:58;;;;;;;8.27;6.63;;;2.50;86.00;;;;;;5074355;28;20236;-89
2022/03/12 06:23:28;;;;;;;11.23;7.28;;;2.60;85.40;;;;;;5079522;28;20224;-89
2022/03/12 06:25:56;;;;;;;8.40;6.78;;;2.70;82.90;;;;;;5084685;28;20208;-91
2022/03/12 06:28:22;;;;;;;8.05;7.25;;;2.80;84.90;;;;;;5087384;28;20188;-91
2022/03/12 06:30:53;;;;;;;9.15;7.10;;;2.90;84.00;;;;;;5097679;28;20267;-93
2022/03/12 06:33:20;;;;;;;8.57;7.13;;;2.90;84.10;;;;;;5098042;28;20172;-95
2022/03/12 06:35:47;;;;;;;11.95;7.70;;;2.90;83.00;;;;;;5107413;22;20259;-76
2022/03/12 06:38:16;;;;;;;8.75;7.07;;;3.00;82.70;;;;;;5085304;28;20196;-76
2022/03/12 06:40:44;;;;;;;10.95;8.88;;;3.00;83.80;;;;;;5072033;28;20558;-77
2022/03/12 06:43:17;;;;;;;9.93;7.10;;;3.10;84.50;;;;;;5071656;28;20580;-76
2022/03/12 06:45:43;;;;;;;12.57;7.80;;;3.20;84.50;;;;;;5054477;28;20308;-76
2022/03/12 06:48:10;;;;;;;9.85;7.70;;;3.30;83.50;;;;;;5050997;28;20201;-77
2022/03/12 06:50:37;;;;;;;10.43;8.18;;;3.40;82.70;;;;;;5051711;28;20197;-75
2022/03/12 06:53:04;;;;;;;10.90;8.75;;;3.40;82.80;;;;;;5064899;28;20675;-76
2022/03/12 06:55:33;;;;;;;11.70;7.70;;;3.50;84.40;;;;;;5059589;28;20224;-77
2022/03/12 06:57:59;;;;;;;10.32;7.95;;;3.60;84.10;;;;;;5051351;28;20689;-77
2022/03/12 07:00:29;;;;;;;11.60;8.10;;;3.70;82.80;;;;;;5052310;28;20202;-77
2022/03/12 07:02:57;;;;;;;11.25;7.22;;;3.80;80.60;;;;;;5052531;28;20225;-76
2022/03/12 07:05:24;;;;;;;13.77;8.27;;;4.00;80.50;;;;;;5051826;28;20233;-77
2022/03/12 07:07:51;;;;;;;10.50;8.10;;;4.30;79.70;;;;;;5063877;28;20188;-76
2022/03/12 07:10:18;;;;;;;12.27;7.72;;;4.70;78.70;;;;;;5074121;28;20204;-75
2022/03/12 07:12:48;;;;;;;10.63;7.28;;;5.00;78.30;;;;;;5067005;28;20197;-77
2022/03/12 07:17:43;;;;;;;11.23;7.85;;;5.70;76.20;;;;;;5078762;28;20291;-75
2022/03/12 07:20:11;;;;;;;12.35;8.88;;;6.00;76.10;;;;;;5075888;28;20196;-76
2022/03/12 07:22:38;;;;;;;13.63;8.10;;;6.50;74.40;;;;;;5074245;28;20553;-76
2022/03/12 07:25:06;;;;;;;8.73;7.70;;;6.70;73.10;;;;;;5058218;28;20232;-75
2022/03/12 07:27:33;;;;;;;10.38;8.75;;;6.90;72.30;;;;;;5050404;28;20275;-75
2022/03/12 07:30:01;;;;;;;10.68;8.68;;;7.30;72.70;;;;;;5050562;28;20239;-75
2022/03/12 07:32:29;;;;;;;13.73;9.45;;;7.50;71.30;;;;;;5054878;28;20615;-77
2022/03/12 07:34:55;;;;;;;13.32;9.50;;;7.70;71.30;;;;;;5054120;28;20225;-76
2022/03/12 07:37:22;;;;;;;13.38;8.82;;;8.10;70.30;;;;;;5052898;28;20216;-76
2022/03/12 07:39:49;;;;;;;12.13;9.43;;;8.30;70.40;;;;;;5071649;28;20207;-76
2022/03/12 07:42:16;;;;;;;10.02;8.75;;;8.40;68.80;;;;;;5071764;28;20196;-76
2022/03/12 07:44:43;;;;;;;9.85;8.35;;;8.70;70.50;;;;;;5060146;28;20569;-76
2022/03/12 07:47:12;;;;;;;12.15;8.80;;;9.10;70.10;;;;;;5050823;28;20233;-76
2022/03/12 07:49:39;;;;;;;9.80;8.80;;;9.60;67.40;;;;;;5052069;28;20197;-76
2022/03/12 07:52:07;;;;;;;13.50;9.05;;;9.80;67.00;;;;;;5071537;28;20246;-76
2022/03/12 07:54:34;;;;;;;11.43;8.48;;;10.10;64.60;;;;;;5071344;28;20236;-75
2022/03/12 07:57:01;;;;;;;10.93;8.52;;;10.30;65.30;;;;;;5067552;28;20197;-71
2022/03/12 07:59:30;;;;;;;13.15;9.70;;;10.80;64.30;;;;;;5047573;28;20200;-76
2022/03/12 08:01:58;;;;;;;15.25;8.73;;;11.00;63.70;;;;;;5063717;28;20594;-76
2022/03/12 08:04:26;;;;;;;12.85;9.38;;;11.40;64.10;;;;;;5063798;28;20235;-76
2022/03/12 08:06:54;;;;;;;11.98;8.32;;;11.80;62.90;;;;;;5071548;28;20196;-76
2022/03/12 08:09:21;;;;;;;10.47;9.20;;;12.20;61.50;;;;;;5072511;28;20200;-76
2022/03/12 08:11:49;;;;;;;13.97;9.60;;;12.40;61.70;;;;;;5072550;28;20653;-76
2022/03/12 08:14:17;;;;;;;11.87;9.60;;;12.40;59.90;;;;;;5072258;28;20880;-77
2022/03/12 08:16:45;;;;;;;12.93;9.60;;;12.40;59.60;;;;;;5071555;28;20501;-75
2022/03/12 08:19:12;;;;;;;12.10;10.10;;;12.10;60.80;;;;;;5054500;28;20980;-75
2022/03/12 08:21:41;;;;;;;17.33;9.60;;;12.20;60.90;;;;;;5051004;28;20463;-76
2022/03/12 08:24:10;;;;;;;11.27;9.40;;;12.60;61.70;;;;;;5054357;28;20494;-76
2022/03/12 08:26:42;;;;;;;11.97;9.80;;;13.10;60.40;;;;;;5058310;28;20464;-75
2022/03/12 08:29:10;;;;;;;11.77;9.80;;;13.20;59.40;;;;;;5060557;28;20478;-76
2022/03/12 08:31:38;;;;;;;13.10;9.50;;;13.10;60.80;;;;;;5078929;28;20466;-75
2022/03/12 08:34:05;;;;;;;11.37;9.40;;;13.30;60.70;;;;;;5080812;28;20485;-76
2022/03/12 08:36:32;;;;;;;12.07;9.70;;;13.60;60.70;;;;;;5079632;28;20496;-76
2022/03/12 08:39:01;;;;;;;15.87;9.77;;;14.20;60.00;;;;;;5079205;28;20477;-73
2022/03/12 08:41:28;;;;;;;11.43;9.33;;;14.80;58.10;;;;;;5069465;28;20474;-76
2022/03/12 08:43:55;;;;;;;14.30;9.77;;;14.90;57.80;;;;;;5053773;28;20846;-75
2022/03/12 08:46:22;;;;;;;14.37;9.60;;;15.30;57.30;;;;;;5052470;28;20463;-76
2022/03/12 08:48:48;;;;;;;13.47;9.97;;;15.20;57.70;;;;;;5051404;28;20474;-76
2022/03/12 08:51:15;;;;;;;12.07;10.43;;;15.10;56.90;;;;;;5052689;28;20464;-76
2022/03/12 08:53:42;;;;;;;16.17;9.63;;;15.30;57.60;;;;;;5049387;28;20813;-76
2022/03/12 08:56:10;;;;;;;11.90;10.00;;;15.40;57.10;;;;;;5049934;28;20465;-76
2022/03/12 08:58:39;;;;;;;13.03;10.13;;;15.60;56.10;;;;;;5048460;28;20459;-76
2022/03/12 09:01:08;;;;;;;14.27;10.17;;;15.40;55.60;;;;;;5049470;28;20470;-76
2022/03/12 09:03:35;;;;;;;13.43;9.20;;;15.40;56.30;;;;;;5049358;28;20499;-77
2022/03/12 09:06:02;;;;;;;10.53;9.43;;;15.80;56.70;;;;;;5050155;28;20510;-76
2022/03/12 09:08:29;;;;;;;11.90;9.57;;;16.60;56.20;;;;;;5048871;28;20459;-76
2022/03/12 09:10:56;;;;;;;11.57;10.33;;;17.00;54.90;;;;;;5049541;28;20474;-76
2022/03/12 09:13:24;;;;;;;12.10;10.83;;;17.20;55.00;;;;;;5049047;28;20499;-75
2022/03/12 09:15:51;;;;;;;11.50;9.80;;;17.70;55.50;;;;;;5048695;28;20487;-75
2022/03/12 09:18:18;;;;;;;13.37;10.80;;;18.30;53.40;;;;;;5048714;28;20487;-75
2022/03/12 09:20:46;;;;;;;13.70;11.80;;;18.60;53.50;;;;;;5047715;28;20467;-76
2022/03/12 09:23:14;;;;;;;11.27;10.13;;;18.30;51.50;;;;;;5049062;28;20519;-76
2022/03/12 09:25:41;;;;;;;11.73;10.60;;;17.90;52.30;;;;;;5047899;28;20483;-76
2022/03/12 09:28:08;;;;;;;15.23;10.67;;;18.10;53.70;;;;;;5047917;28;20520;-76
2022/03/12 09:30:36;;;;;;;12.73;11.10;;;18.40;53.70;;;;;;5051933;28;20477;-76
2022/03/12 09:33:04;;;;;;;14.23;11.17;;;19.10;52.90;;;;;;5052397;28;20459;-76
2022/03/12 09:35:31;;;;;;;13.60;11.97;;;19.00;53.90;;;;;;5067758;28;20896;-76
2022/03/12 09:37:59;;;;;;;13.73;11.70;;;19.20;53.90;;;;;;5067672;28;20477;-75
2022/03/12 09:40:26;;;;;;;17.03;11.73;;;19.80;53.40;;;;;;5048797;28;21188;-76
2022/03/12 09:42:53;;;;;;;13.20;11.67;;;20.20;51.20;;;;;;5048158;28;20471;-76
2022/03/12 09:45:22;;;;;;;13.00;11.70;;;20.50;52.30;;;;;;5050334;28;20487;-76
2022/03/12 09:47:50;;;;;;;13.90;11.83;;;20.60;51.30;;;;;;5053827;28;20462;-76
2022/03/12 09:50:18;;;;;;;12.40;10.87;;;20.90;52.50;;;;;;5068785;28;20466;-76
2022/03/12 09:52:45;;;;;;;14.03;11.90;;;21.60;51.20;;;;;;5046926;28;20475;-76
2022/03/12 09:55:12;;;;;;;14.90;12.50;;;22.00;49.50;;;;;;5055758;28;20471;-76
2022/03/12 09:57:39;;;;;;;14.43;12.30;;;22.00;50.90;;;;;;5051304;28;20485;-76
2022/03/12 10:00:08;;;;;;;19.43;12.70;;;22.20;49.60;;;;;;5051632;28;20470;-76
2022/03/12 10:02:35;;;;;;;13.00;11.70;;;22.30;49.10;;;;;;5069577;28;20478;-76
2022/03/12 10:05:04;;;;;;;15.10;12.00;;;21.70;49.70;;;;;;5055315;28;20487;-76
2022/03/12 10:07:30;;;;;;;15.10;11.93;;;22.00;49.50;;;;;;5047620;28;20456;-76
2022/03/12 10:09:57;;;;;;;15.17;13.57;;;22.00;50.00;;;;;;5052181;28;20467;-76
2022/03/12 10:12:24;;;;;;;15.20;13.33;;;21.70;49.40;;;;;;5052454;28;20869;-76
2022/03/12 10:14:51;;;;;;;17.37;14.43;;;21.80;50.50;;;;;;5051862;28;20574;-75
2022/03/12 10:17:18;;;;;;;15.77;12.97;;;22.00;50.90;;;;;;5053696;28;20472;-76
2022/03/12 10:19:45;;;;;;;16.00;12.03;;;22.10;50.40;;;;;;5046966;28;20463;-76
2022/03/12 10:22:14;;;;;;;14.23;11.90;;;22.20;51.20;;;;;;5048459;28;20842;-76
2022/03/12 10:24:41;;;;;;;14.93;13.27;;;22.20;50.40;;;;;;5048608;28;20575;-76
2022/03/12 10:27:08;;;;;;;13.57;12.13;;;22.20;50.80;;;;;;5048262;28;20474;-76
2022/03/12 10:29:38;;;;;;;15.63;14.00;;;22.70;51.00;;;;;;5049396;28;20472;-74
2022/03/12 10:32:23;;;;;;;16.10;11.40;;;23.40;50.00;;;;;;5053842;28;20466;-75
2022/03/12 10:34:52;;;;;;;13.10;11.80;;;23.40;50.00;;;;;;5053418;28;20521;-74
2022/03/12 10:37:22;;;;;;;13.33;12.00;;;23.60;49.90;;;;;;5054706;28;20454;-75
2022/03/12 10:40:00;;;;;;;15.60;12.50;;;23.80;49.60;;;;;;5051520;28;20455;-77
2022/03/12 10:42:27;;;;;;;13.03;11.70;;;23.70;50.00;;;;;;5057940;28;21047;-76
2022/03/12 10:44:54;;;;;;;15.00;13.03;;;23.80;49.40;;;;;;5049487;28;20490;-74
2022/03/12 10:47:24;;;;;;;13.60;12.30;;;24.10;49.90;;;;;;5053762;28;20509;-76
2022/03/12 10:49:57;;;;;;;16.27;12.90;;;24.30;49.20;;;;;;5048338;28;20460;-75
2022/03/12 10:52:30;;;;;;;13.50;12.20;;;24.00;50.10;;;;;;5053739;28;20563;-75
2022/03/12 10:55:40;;;;;;;18.20;12.67;;;24.20;48.50;;;;;;5050619;28;20915;-75
2022/03/12 10:58:15;;;;;;;14.07;12.70;;;23.50;48.90;;;;;;5023812;28;20460;-76
2022/03/12 11:00:48;;;;;;;13.30;12.00;;;23.10;49.30;;;;;;5050368;28;20471;-76
2022/03/12 11:03:20;;;;;;;16.70;11.73;;;22.70;50.00;;;;;;5057690;28;20470;-77
2022/03/12 11:05:53;;;;;;;16.13;13.33;;;21.90;50.50;;;;;;5065267;28;20563;-73
2022/03/12 11:08:32;;;;;;;12.67;11.47;;;21.10;51.10;;;;;;5052879;28;20467;-73
2022/03/12 11:11:11;;;;;;;14.37;12.43;;;21.60;52.30;;;;;;5051692;28;20474;-74
2022/03/12 11:13:48;;;;;;;13.80;12.37;;;22.80;52.40;;;;;;5058915;28;20474;-75
2022/03/12 11:16:21;;;;;;;14.57;12.53;;;24.00;50.10;;;;;;5062405;28;20480;-74
2022/03/12 11:21:44;;;;;;;12.87;11.57;;;24.90;49.20;;;;;;5045646;28;20551;-74
2022/03/12 11:24:17;;;;;;;14.38;12.20;;;24.40;49.20;;;;;;5066459;28;20461;-76
2022/03/12 11:26:46;;;;;;;13.30;11.13;;;24.20;50.50;;;;;;5049265;28;20253;-74
2022/03/12 11:29:14;;;;;;;13.20;11.90;;;24.00;49.90;;;;;;5046715;28;20463;-77
2022/03/12 11:31:44;;;;;;;14.83;11.43;;;23.70;50.00;;;;;;5048580;28;20455;-77
2022/03/12 11:34:26;;;;;;;13.20;11.80;;;23.40;51.50;;;;;;5047231;28;20483;-77
2022/03/12 11:37:05;;;;;;;12.63;11.30;;;23.50;51.40;;;;;;5053836;28;21115;-77
2022/03/12 11:39:36;;;;;;;12.83;11.53;;;23.40;51.50;;;;;;5048905;28;20459;-77
2022/03/12 11:42:09;;;;;;;13.17;11.97;;;23.30;53.20;;;;;;5060709;28;20465;-77
2022/03/12 11:44:36;;;;;;;11.43;10.30;;;23.70;53.50;;;;;;5047710;28;20990;-77
2022/03/12 11:47:04;;;;;;;12.10;10.83;;;24.20;52.90;;;;;;5055690;28;20577;-77
2022/03/12 11:49:32;;;;;;;11.23;9.80;;;24.60;51.60;;;;;;5052029;28;20823;-76
2022/03/12 11:51:59;;;;;;;11.60;10.40;;;24.90;51.70;;;;;;5064686;28;20510;-78
2022/03/12 11:54:26;;;;;;;15.23;11.07;;;25.40;51.70;;;;;;5062041;28;20470;-79
2022/03/12 11:56:54;;;;;;;12.33;11.00;;;25.50;52.00;;;;;;5142933;23;20483;-75
2022/03/12 11:59:21;;;;;;;13.97;10.13;;;25.60;51.30;;;;;;5086918;28;20484;-75
2022/03/12 12:02:05;;;;;;;11.10;10.00;;;25.40;52.30;;;;;;5086533;28;20473;-75
2022/03/12 12:04:33;;;;;;;8.63;7.90;;;24.90;53.20;;;;;;5080984;28;20561;-75
2022/03/12 12:07:01;;;;;;;9.73;8.73;;;25.40;53.70;;;;;;5067336;28;20868;-75
2022/03/12 12:09:29;;;;;;;9.80;8.80;;;25.80;53.20;;;;;;5068141;28;20466;-75
2022/03/12 12:11:58;;;;;;;9.70;8.80;;;25.60;53.20;;;;;;5067220;28;20542;-75
2022/03/12 12:14:25;;;;;;;9.73;8.87;;;25.90;53.20;;;;;;5067135;28;20861;-75
2022/03/12 12:16:57;;;;;;;10.30;9.20;;;25.60;53.00;;;;;;5068302;28;20883;-75
2022/03/12 12:19:25;;;;;;;9.40;8.40;;;25.30;53.70;;;;;;5071232;28;20466;-75
2022/03/12 12:21:52;;;;;;;11.90;9.93;;;25.80;53.10;;;;;;5070907;28;20493;-74
2022/03/12 12:24:29;;;;;;;10.90;9.70;;;26.10;52.40;;;;;;5070252;28;20506;-75
2022/03/12 12:27:00;;;;;;;9.27;8.40;;;26.00;53.40;;;;;;5068593;28;20485;-75
2022/03/12 12:29:48;;;;;;;9.90;8.90;;;26.30;52.70;;;;;;5070218;28;20471;-75
2022/03/12 12:32:17;;;;;;;9.57;8.67;;;25.80;52.70;;;;;;5070683;28;20473;-74
2022/03/12 12:35:10;;;;;;;9.90;8.60;;;24.20;54.80;;;;;;5071428;28;20481;-74
2022/03/12 12:37:46;;;;;;;8.00;7.30;;;23.50;56.90;;;;;;5069359;28;20476;-75
2022/03/12 12:40:29;;;;;;;10.50;8.13;;;23.60;56.40;;;;;;5069982;28;20462;-75
2022/03/12 12:42:59;;;;;;;10.47;9.37;;;24.30;56.00;;;;;;5067807;28;20545;-75
2022/03/12 12:45:29;;;;;;;9.23;8.27;;;24.90;56.00;;;;;;5070139;28;20473;-75
2022/03/12 12:48:14;;;;;;;9.87;8.90;;;25.40;55.30;;;;;;5069283;28;21002;-75
2022/03/12 12:50:41;;;;;;;8.23;7.43;;;25.60;54.50;;;;;;5070293;28;20462;-75
2022/03/12 12:53:27;;;;;;;9.80;8.90;;;25.30;54.00;;;;;;5070665;28;20509;-75
2022/03/12 12:56:12;;;;;;;10.40;8.53;;;24.90;54.30;;;;;;5069349;28;20489;-75